createdAt,value
2019-02-03T00:01:12.732Z,24.57
2019-02-03T00:03:48.114Z,23.30
2019-02-03T00:06:22.501Z,21.93
2019-02-03T00:08:54.384Z,25.80
2019-02-03T00:11:20.828Z,23.47
2019-02-03T00:13:52.820Z,20.80
2019-02-03T00:16:18.823Z,21.70
2019-02-03T00:18:48.796Z,21.97
2019-02-03T00:21:17.022Z,20.87
2019-02-03T00:23:45.472Z,22.37
2019-02-03T00:26:17.551Z,29.10
2019-02-03T00:28:52.157Z,30.57
2019-02-03T00:31:20.313Z,23.63
2019-02-03T00:33:53.195Z,27.13
2019-02-03T00:36:45.257Z,31.10
2019-02-03T00:39:22.665Z,23.13
2019-02-03T00:41:48.914Z,21.57
2019-02-03T00:44:18.668Z,23.00
2019-02-03T00:46:45.063Z,22.57
2019-02-03T00:49:13.191Z,21.10
2019-02-03T00:51:50.511Z,23.67
2019-02-03T00:54:17.962Z,20.40
2019-02-03T00:56:49.590Z,22.47
2019-02-03T00:59:25.876Z,22.97
2019-02-03T01:01:52.113Z,21.93
2019-02-03T01:04:20.388Z,22.23
2019-02-03T01:06:46.616Z,21.40
2019-02-03T01:09:17.823Z,20.97
2019-02-03T01:11:46.046Z,21.63
2019-02-03T01:14:14.795Z,24.23
2019-02-03T01:16:57.133Z,21.93
2019-02-03T01:19:26.777Z,24.60
2019-02-03T01:22:05.120Z,23.07
2019-02-03T01:24:32.235Z,24.53
2019-02-03T01:26:58.648Z,22.90
2019-02-03T01:29:27.044Z,23.83
2019-02-03T01:31:54.091Z,22.85
2019-02-03T01:34:20.544Z,24.33
2019-02-03T01:36:58.741Z,22.60
2019-02-03T01:39:31.125Z,22.90
2019-02-03T01:41:59.207Z,24.47
2019-02-03T01:47:06.972Z,25.67
2019-02-03T01:49:36.282Z,25.23
2019-02-03T01:52:04.560Z,23.23
2019-02-03T01:54:31.698Z,24.77
2019-02-03T01:57:01.000Z,26.20
2019-02-03T01:59:27.288Z,24.67
2019-02-03T02:02:10.434Z,24.90
2019-02-03T02:04:46.211Z,26.00
2019-02-03T02:07:22.519Z,26.47
2019-02-03T02:09:57.009Z,24.00
2019-02-03T02:12:23.173Z,25.88
2019-02-03T02:14:51.420Z,26.23
2019-02-03T02:17:25.727Z,27.37
2019-02-03T02:19:53.018Z,27.33
2019-02-03T02:22:25.713Z,25.65
2019-02-03T02:24:56.289Z,26.93
2019-02-03T02:27:36.852Z,28.27
2019-02-03T02:30:13.887Z,28.95
2019-02-03T02:32:42.568Z,29.57
2019-02-03T02:35:22.465Z,31.87
2019-02-03T02:38:06.864Z,31.90
2019-02-03T02:41:00.768Z,29.45
2019-02-03T02:43:38.014Z,28.87
2019-02-03T02:46:04.207Z,31.93
2019-02-03T02:48:30.392Z,31.35
2019-02-03T02:51:06.178Z,32.25
2019-02-03T02:53:32.536Z,31.17
2019-02-03T02:56:04.036Z,32.30
2019-02-03T02:58:30.241Z,31.90
2019-02-03T03:00:57.831Z,29.37
2019-02-03T03:03:32.905Z,32.40
2019-02-03T03:06:01.250Z,31.97
2019-02-03T03:08:35.686Z,31.05
2019-02-03T03:11:08.394Z,29.25
2019-02-03T03:13:40.655Z,32.17
2019-02-03T03:16:07.261Z,29.40
2019-02-03T03:18:37.770Z,30.37
2019-02-03T03:21:12.540Z,33.00
2019-02-03T03:23:40.738Z,31.87
2019-02-03T03:26:14.210Z,30.68
2019-02-03T03:28:41.343Z,31.17
2019-02-03T03:31:16.586Z,31.68
2019-02-03T03:33:42.941Z,30.97
2019-02-03T03:36:12.318Z,29.75
2019-02-03T03:38:42.456Z,31.15
2019-02-03T03:41:16.076Z,30.27
2019-02-03T03:43:43.248Z,29.10
2019-02-03T03:46:10.470Z,32.13
2019-02-03T03:48:39.914Z,28.57
2019-02-03T03:51:15.099Z,27.45
2019-02-03T03:53:55.387Z,29.27
2019-02-03T03:56:24.557Z,29.52
2019-02-03T03:58:50.680Z,29.98
2019-02-03T04:01:22.963Z,28.92
2019-02-03T04:03:53.284Z,29.35
2019-02-03T04:06:20.748Z,28.70
2019-02-03T04:08:50.025Z,31.77
2019-02-03T04:11:16.490Z,27.45
2019-02-03T04:13:44.666Z,28.30
2019-02-03T04:16:10.728Z,27.32
2019-02-03T04:18:41.610Z,28.83
2019-02-03T04:21:11.298Z,27.98
2019-02-03T04:23:44.607Z,27.62
2019-02-03T04:26:13.889Z,26.70
2019-02-03T04:28:58.304Z,27.10
2019-02-03T04:31:31.182Z,28.35
2019-02-03T04:34:05.463Z,26.42
2019-02-03T04:36:40.709Z,25.95
2019-02-03T04:39:15.392Z,26.60
2019-02-03T04:41:42.625Z,28.17
2019-02-03T04:44:13.011Z,28.32
2019-02-03T04:46:39.153Z,28.10
2019-02-03T04:49:11.725Z,26.82
2019-02-03T04:51:49.389Z,25.20
2019-02-03T04:54:15.480Z,25.95
2019-02-03T04:56:49.019Z,28.80
2019-02-03T04:59:27.516Z,28.45
2019-02-03T05:02:01.016Z,29.32
2019-02-03T05:04:48.702Z,27.32
2019-02-03T05:07:20.673Z,25.17
2019-02-03T05:09:59.080Z,29.50
2019-02-03T05:12:27.653Z,25.95
2019-02-03T05:14:54.905Z,27.82
2019-02-03T05:17:25.132Z,28.00
2019-02-03T05:19:51.317Z,26.97
2019-02-03T05:22:23.703Z,27.50
2019-02-03T05:24:49.772Z,25.57
2019-02-03T05:27:17.557Z,25.50
2019-02-03T05:29:53.820Z,27.05
2019-02-03T05:32:22.102Z,25.97
2019-02-03T05:34:48.306Z,28.45
2019-02-03T05:37:18.770Z,25.52
2019-02-03T05:39:52.739Z,27.07
2019-02-03T05:42:29.129Z,26.75
2019-02-03T05:45:00.654Z,25.80
2019-02-03T05:47:45.423Z,29.87
2019-02-03T05:50:18.492Z,25.95
2019-02-03T05:52:45.709Z,26.65
2019-02-03T05:55:24.967Z,25.68
2019-02-03T05:57:52.160Z,25.43
2019-02-03T06:00:32.537Z,25.40
2019-02-03T06:03:08.306Z,26.48
2019-02-03T06:05:34.644Z,25.15
2019-02-03T06:08:02.052Z,26.10
2019-02-03T06:10:31.056Z,26.73
2019-02-03T06:12:57.570Z,26.60
2019-02-03T06:15:36.141Z,25.62
2019-02-03T06:18:05.407Z,25.35
2019-02-03T06:20:43.841Z,26.17
2019-02-03T06:23:11.973Z,23.73
2019-02-03T06:25:49.121Z,23.42
2019-02-03T06:28:16.465Z,22.77
2019-02-03T06:30:56.256Z,21.45
2019-02-03T06:33:24.560Z,23.00
2019-02-03T06:35:54.783Z,22.35
2019-02-03T06:38:23.277Z,22.22
2019-02-03T06:40:58.096Z,21.90
2019-02-03T06:43:36.579Z,21.90
2019-02-03T06:46:15.384Z,20.85
2019-02-03T06:48:42.629Z,20.97
2019-02-03T06:51:16.513Z,19.92
2019-02-03T06:53:55.882Z,21.55
2019-02-03T06:56:23.095Z,20.80
2019-02-03T06:58:56.882Z,20.77
2019-02-03T07:01:22.613Z,21.73
2019-02-03T07:03:49.722Z,20.68
2019-02-03T07:06:24.891Z,21.30
2019-02-03T07:08:53.371Z,21.20
2019-02-03T07:11:31.706Z,19.27
2019-02-03T07:14:01.104Z,18.27
2019-02-03T07:16:40.486Z,18.73
2019-02-03T07:19:04.792Z,18.00
2019-02-03T07:21:53.624Z,19.02
2019-02-03T07:24:26.527Z,19.65
2019-02-03T07:26:54.034Z,19.00
2019-02-03T07:29:20.322Z,17.82
2019-02-03T07:31:48.784Z,19.73
2019-02-03T07:34:23.791Z,19.60
2019-02-03T07:36:51.190Z,18.50
2019-02-03T07:39:30.871Z,17.75
2019-02-03T07:42:03.911Z,19.57
2019-02-03T07:44:31.061Z,18.57
2019-02-03T07:46:58.551Z,18.00
2019-02-03T07:49:30.616Z,19.73
2019-02-03T07:51:58.744Z,20.60
2019-02-03T07:54:31.749Z,18.73
2019-02-03T07:57:01.920Z,21.10
2019-02-03T07:59:29.029Z,19.40
2019-02-03T08:01:55.277Z,19.55
2019-02-03T08:04:25.351Z,20.45
2019-02-03T08:07:02.781Z,21.70
2019-02-03T08:09:47.712Z,18.65
2019-02-03T08:12:17.253Z,18.83
2019-02-03T08:14:50.729Z,20.70
2019-02-03T08:17:23.101Z,20.93
2019-02-03T08:20:10.923Z,20.20
2019-02-03T08:22:44.424Z,21.37
2019-02-03T08:25:24.982Z,20.00
2019-02-03T08:27:51.282Z,21.40
2019-02-03T08:30:29.987Z,20.33
2019-02-03T08:32:57.412Z,20.33
2019-02-03T08:35:29.762Z,18.80
2019-02-03T08:38:01.924Z,20.90
2019-02-03T08:40:37.194Z,19.10
2019-02-03T08:43:10.167Z,20.57
2019-02-03T08:45:38.493Z,21.03
2019-02-03T08:48:04.792Z,22.20
2019-02-03T08:50:32.395Z,20.07
2019-02-03T08:53:01.527Z,20.63
2019-02-03T08:55:29.758Z,22.90
2019-02-03T08:58:01.683Z,20.50
2019-02-03T09:00:42.428Z,24.03
2019-02-03T09:03:20.143Z,21.27
2019-02-03T09:05:46.434Z,19.23
2019-02-03T09:08:44.971Z,20.50
2019-02-03T09:11:11.839Z,25.47
2019-02-03T09:13:44.928Z,22.03
2019-02-03T09:16:12.133Z,19.30
2019-02-03T09:18:43.792Z,20.82
2019-02-03T09:21:10.215Z,22.40
2019-02-03T09:23:37.242Z,19.63
2019-02-03T09:26:08.601Z,21.80
2019-02-03T09:28:38.374Z,22.55
2019-02-03T09:31:04.519Z,22.60
2019-02-03T09:33:30.676Z,25.77
2019-02-03T09:36:08.099Z,22.17
2019-02-03T09:38:38.953Z,21.23
2019-02-03T09:41:05.338Z,23.37
2019-02-03T09:43:31.945Z,22.83
2019-02-03T09:46:01.615Z,29.90
2019-02-03T09:48:27.884Z,25.87
2019-02-03T09:50:56.114Z,26.80
2019-02-03T09:53:23.418Z,27.43
2019-02-03T09:55:54.899Z,57.93
2019-02-03T09:58:32.498Z,22.07
2019-02-03T10:01:00.873Z,21.83
2019-02-03T10:03:36.310Z,24.77
2019-02-03T10:06:05.233Z,24.70
2019-02-03T10:08:40.311Z,22.13
2019-02-03T10:11:11.707Z,24.90
2019-02-03T10:13:31.202Z,22.50
2019-02-03T10:16:09.633Z,23.50
2019-02-03T10:18:36.627Z,24.40
2019-02-03T10:21:08.961Z,22.10
2019-02-03T10:23:41.051Z,21.50
2019-02-03T10:26:09.621Z,21.50
2019-02-03T10:28:37.962Z,21.93
2019-02-03T10:31:06.837Z,22.50
2019-02-03T10:33:35.262Z,20.60
2019-02-03T10:36:10.515Z,20.27
2019-02-03T10:38:43.811Z,22.10
2019-02-03T10:41:23.686Z,20.55
2019-02-03T10:43:48.760Z,22.63
2019-02-03T10:46:19.022Z,22.23
2019-02-03T10:48:51.890Z,21.47
2019-02-03T10:51:20.370Z,20.93
2019-02-03T10:53:46.541Z,23.03
2019-02-03T10:56:19.097Z,18.33
2019-02-03T10:59:00.976Z,18.40
2019-02-03T11:01:27.305Z,17.53
2019-02-03T11:04:18.286Z,19.63
2019-02-03T11:06:47.711Z,18.50
2019-02-03T11:09:21.175Z,19.70
2019-02-03T11:11:52.585Z,20.70
2019-02-03T11:14:54.913Z,20.07
2019-02-03T11:17:31.521Z,19.17
2019-02-03T11:20:22.696Z,18.30
2019-02-03T11:22:52.328Z,17.73
2019-02-03T11:25:39.081Z,19.70
2019-02-03T11:28:11.428Z,17.83
2019-02-03T11:30:51.267Z,20.55
2019-02-03T11:33:25.373Z,20.75
2019-02-03T11:36:04.099Z,21.60
2019-02-03T11:38:30.678Z,21.67
2019-02-03T11:41:14.822Z,20.77
2019-02-03T11:43:48.796Z,21.80
2019-02-03T11:46:19.017Z,19.77
2019-02-03T11:48:45.660Z,20.90
2019-02-03T11:51:37.206Z,20.50
2019-02-03T11:54:23.736Z,19.53
2019-02-03T11:56:51.334Z,19.10
2019-02-03T11:59:25.150Z,19.30
2019-02-03T12:02:10.054Z,19.30
2019-02-03T12:04:43.306Z,21.53
2019-02-03T12:07:12.617Z,20.37
2019-02-03T12:09:39.811Z,22.80
2019-02-03T12:12:25.836Z,19.97
2019-02-03T12:14:58.526Z,20.65
2019-02-03T12:17:52.249Z,20.50
2019-02-03T12:20:32.011Z,20.37
2019-02-03T12:23:09.414Z,24.67
2019-02-03T12:25:44.509Z,20.50
2019-02-03T12:28:11.878Z,20.07
2019-02-03T12:30:38.524Z,21.73
2019-02-03T12:33:06.538Z,20.60
2019-02-03T12:35:42.561Z,21.10
2019-02-03T12:38:18.284Z,19.90
2019-02-03T12:41:00.668Z,21.77
2019-02-03T12:43:26.986Z,19.70
2019-02-03T12:45:53.330Z,20.23
2019-02-03T12:48:38.045Z,19.60
2019-02-03T12:51:06.049Z,19.93
2019-02-03T12:53:40.270Z,22.00
2019-02-03T12:56:07.552Z,20.00
2019-02-03T12:58:42.129Z,20.90
2019-02-03T13:01:32.141Z,21.70
2019-02-03T13:04:03.539Z,20.00
2019-02-03T13:06:42.872Z,20.02
2019-02-03T13:09:16.662Z,23.57
2019-02-03T13:11:42.751Z,20.00
2019-02-03T13:14:09.386Z,23.63
2019-02-03T13:16:37.659Z,22.43
2019-02-03T13:19:05.937Z,20.50
2019-02-03T13:21:34.284Z,17.77
2019-02-03T13:24:03.828Z,19.50
2019-02-03T13:26:37.246Z,20.00
2019-02-03T13:29:09.447Z,18.80
2019-02-03T13:31:36.596Z,19.10
2019-02-03T13:34:03.101Z,18.17
2019-02-03T13:36:29.595Z,19.37
2019-02-03T13:39:06.827Z,16.50
2019-02-03T13:41:41.196Z,20.20
2019-02-03T13:44:10.902Z,15.50
2019-02-03T13:46:37.029Z,16.17
2019-02-03T13:49:03.569Z,14.97
2019-02-03T13:51:31.740Z,13.30
2019-02-03T13:53:59.043Z,11.63
2019-02-03T13:56:27.682Z,12.00
2019-02-03T13:58:53.597Z,11.27
2019-02-03T14:01:39.595Z,11.60
2019-02-03T14:04:05.868Z,14.40
2019-02-03T14:09:27.633Z,12.10
2019-02-03T14:12:09.109Z,9.87
2019-02-03T14:14:55.479Z,10.30
2019-02-03T14:17:36.083Z,9.47
2019-02-03T14:23:28.153Z,12.00
2019-02-03T14:26:13.975Z,9.73
2019-02-03T14:29:22.244Z,8.60
2019-02-03T19:19:24.869Z,6.57
2019-02-03T19:21:51.914Z,7.20
2019-02-03T19:24:18.213Z,7.17
2019-02-03T19:26:44.497Z,7.63
2019-02-03T19:29:16.237Z,7.50
2019-02-03T19:31:42.384Z,6.90
2019-02-03T19:34:13.594Z,7.60
2019-02-03T19:36:39.619Z,8.20
2019-02-03T19:39:07.922Z,6.60
2019-02-03T19:41:34.356Z,7.47
2019-02-03T19:44:00.371Z,6.23
2019-02-03T19:46:26.394Z,7.17
2019-02-03T19:48:52.438Z,7.80
2019-02-03T19:51:18.489Z,7.47
2019-02-03T19:53:44.535Z,6.50
2019-02-03T19:56:10.547Z,6.90
2019-02-03T19:58:36.585Z,6.93
2019-02-03T20:02:07.880Z,7.00
2019-02-03T20:04:33.941Z,5.97
2019-02-03T20:06:59.979Z,6.30
2019-02-03T20:09:27.197Z,6.30
2019-02-03T20:11:53.287Z,6.67
2019-02-03T20:14:20.475Z,7.43
2019-02-03T20:16:46.539Z,8.97
2019-02-03T20:19:12.559Z,7.00
2019-02-03T20:21:38.657Z,6.70
2019-02-03T20:24:05.012Z,6.40
2019-02-03T20:26:31.559Z,7.70
2019-02-03T20:28:59.071Z,7.20
2019-02-03T20:31:25.129Z,7.60
2019-02-03T20:33:51.193Z,7.43
2019-02-03T20:36:17.531Z,8.57
2019-02-03T20:38:45.744Z,8.13
2019-02-03T20:41:11.954Z,7.93
2019-02-03T20:43:38.387Z,6.90
2019-02-03T20:46:04.763Z,8.47
2019-02-03T20:48:30.856Z,9.13
2019-02-03T20:50:56.944Z,7.43
2019-02-03T20:53:22.964Z,7.80
2019-02-03T20:55:49.143Z,7.97
2019-02-03T20:58:15.302Z,7.03
2019-02-03T21:00:41.538Z,8.00
2019-02-03T21:03:07.611Z,7.10
2019-02-03T21:05:34.056Z,7.57
2019-02-03T21:08:00.216Z,8.10
2019-02-03T21:10:26.405Z,7.93
2019-02-03T21:12:54.472Z,8.30
2019-02-03T21:15:33.031Z,8.77
2019-02-03T21:17:50.758Z,8.27
2019-02-03T21:20:21.560Z,8.13
2019-02-03T21:22:48.911Z,7.30
2019-02-03T21:25:16.376Z,8.37
2019-02-03T21:27:42.627Z,7.67
2019-02-03T21:30:18.602Z,8.10
2019-02-03T21:32:44.888Z,8.67
2019-02-03T21:35:11.132Z,7.90
2019-02-03T21:37:38.321Z,7.30
2019-02-03T21:40:08.226Z,7.17
2019-02-03T21:42:34.559Z,7.20
2019-02-03T21:45:00.687Z,7.70
2019-02-03T21:47:26.755Z,8.07
2019-02-03T21:49:53.605Z,7.63
2019-02-03T21:52:19.802Z,8.70
2019-02-03T21:54:45.828Z,7.00
2019-02-03T21:57:14.468Z,7.70
2019-02-03T21:59:40.117Z,7.93
2019-02-03T22:02:06.263Z,8.40
2019-02-03T22:04:32.316Z,8.20
2019-02-03T22:06:58.386Z,8.03
2019-02-03T22:09:24.501Z,8.33
2019-02-03T22:11:50.957Z,9.30
2019-02-03T22:14:17.003Z,12.20
2019-02-03T22:16:42.985Z,9.90
2019-02-03T22:19:09.015Z,10.37
2019-02-03T22:21:35.085Z,10.20
2019-02-03T22:24:02.538Z,10.50
2019-02-03T22:26:29.383Z,10.90
2019-02-03T22:28:57.135Z,11.67
2019-02-03T22:31:23.271Z,10.17
2019-02-03T22:33:49.692Z,11.40
2019-02-03T22:36:15.748Z,11.85
2019-02-03T22:38:44.608Z,10.98
2019-02-03T22:41:10.691Z,12.13
2019-02-03T22:43:37.089Z,10.97
2019-02-03T22:46:07.262Z,10.63
2019-02-03T22:48:31.586Z,11.10
2019-02-03T22:50:57.655Z,11.43
2019-02-03T22:53:23.760Z,11.40
2019-02-03T22:55:49.836Z,11.97
2019-02-03T22:58:16.010Z,10.37
2019-02-03T23:00:51.801Z,10.90
2019-02-03T23:03:20.197Z,11.73
2019-02-03T23:05:47.593Z,12.40
2019-02-03T23:08:13.660Z,12.40
2019-02-03T23:10:39.949Z,11.47
2019-02-03T23:13:06.983Z,11.97
2019-02-03T23:15:33.143Z,12.23
2019-02-03T23:17:59.644Z,12.47
2019-02-03T23:20:25.668Z,11.80
2019-02-03T23:22:51.731Z,10.90
2019-02-03T23:25:17.770Z,11.70
2019-02-03T23:27:43.843Z,12.30
2019-02-03T23:30:15.372Z,12.50
2019-02-03T23:32:45.560Z,13.27
2019-02-03T23:35:12.142Z,11.30
2019-02-03T23:37:39.334Z,11.70
2019-02-03T23:40:13.494Z,12.40
2019-02-03T23:42:39.534Z,11.33
2019-02-03T23:45:11.296Z,13.27
2019-02-03T23:47:37.364Z,15.87
2019-02-03T23:50:15.302Z,13.73
2019-02-03T23:52:41.419Z,11.87
2019-02-03T23:55:08.823Z,12.17
2019-02-03T23:57:35.276Z,12.97
